createdAt,value
2017-11-11T00:01:34.814Z,5.50
2017-11-11T00:04:01.210Z,5.60
2017-11-11T00:06:27.653Z,5.60
2017-11-11T00:08:54.069Z,5.70
2017-11-11T00:11:20.468Z,5.60
2017-11-11T00:13:47.652Z,5.60
2017-11-11T00:16:14.054Z,5.60
2017-11-11T00:18:41.208Z,5.60
2017-11-11T00:21:08.391Z,5.60
2017-11-11T00:23:34.775Z,5.60
2017-11-11T00:26:01.931Z,5.60
2017-11-11T00:28:29.105Z,5.60
2017-11-11T00:30:55.533Z,5.50
2017-11-11T00:33:21.929Z,5.50
2017-11-11T00:35:48.326Z,5.50
2017-11-11T00:38:14.753Z,5.40
2017-11-11T00:40:41.158Z,5.40
2017-11-11T00:43:07.597Z,5.30
2017-11-11T00:45:33.984Z,5.30
2017-11-11T00:48:00.446Z,5.20
2017-11-11T00:50:27.605Z,5.30
2017-11-11T00:52:54.960Z,5.30
2017-11-11T00:55:21.521Z,5.30
2017-11-11T00:57:48.089Z,5.30
2017-11-11T01:00:15.397Z,5.20
2017-11-11T01:02:41.805Z,5.20
2017-11-11T01:05:08.931Z,5.20
2017-11-11T01:07:35.377Z,5.10
2017-11-11T01:10:02.557Z,5.10
2017-11-11T01:12:28.945Z,5.00
2017-11-11T01:14:55.360Z,5.00
2017-11-11T01:17:21.814Z,5.00
2017-11-11T01:19:48.252Z,5.00
2017-11-11T01:22:14.684Z,5.00
2017-11-11T01:24:41.072Z,5.00
2017-11-11T01:27:07.524Z,4.90
2017-11-11T01:29:33.977Z,4.90
2017-11-11T01:32:00.409Z,4.90
2017-11-11T01:34:26.840Z,4.80
2017-11-11T01:36:53.285Z,5.00
2017-11-11T01:39:20.452Z,4.90
2017-11-11T01:41:47.631Z,4.80
2017-11-11T01:44:14.116Z,4.80
2017-11-11T01:46:40.545Z,4.80
2017-11-11T01:49:06.973Z,4.70
2017-11-11T01:51:33.419Z,4.80
2017-11-11T01:53:59.840Z,4.70
2017-11-11T01:56:26.305Z,4.80
2017-11-11T01:58:53.495Z,4.80
2017-11-11T02:01:19.944Z,4.80
2017-11-11T02:03:46.445Z,4.80
2017-11-11T02:06:12.894Z,4.70
2017-11-11T02:08:40.125Z,4.60
2017-11-11T02:11:06.531Z,4.60
2017-11-11T02:13:33.723Z,4.50
2017-11-11T02:16:00.161Z,4.50
2017-11-11T02:18:26.652Z,4.50
2017-11-11T02:20:53.109Z,4.40
2017-11-11T02:23:19.568Z,4.40
2017-11-11T02:25:46.042Z,4.40
2017-11-11T02:28:12.508Z,4.40
2017-11-11T02:30:38.966Z,4.50
2017-11-11T02:33:05.443Z,4.60
2017-11-11T02:35:31.891Z,4.70
2017-11-11T02:37:59.258Z,4.60
2017-11-11T02:40:26.437Z,4.50
2017-11-11T02:42:52.905Z,4.50
2017-11-11T02:45:20.145Z,4.50
2017-11-11T02:47:46.647Z,4.50
2017-11-11T02:50:13.106Z,4.50
2017-11-11T02:52:39.568Z,4.40
2017-11-11T02:55:06.036Z,4.20
2017-11-11T02:57:32.501Z,4.20
2017-11-11T02:59:58.961Z,4.30
2017-11-11T03:02:25.412Z,4.20
2017-11-11T03:04:51.841Z,4.20
2017-11-11T03:07:18.315Z,4.20
2017-11-11T03:09:44.768Z,4.20
2017-11-11T03:12:11.184Z,4.10
2017-11-11T03:14:37.724Z,4.10
2017-11-11T03:17:04.128Z,4.10
2017-11-11T03:19:31.333Z,4.20
2017-11-11T03:21:57.794Z,4.20
2017-11-11T03:24:24.237Z,4.30
2017-11-11T03:26:51.429Z,4.30
2017-11-11T03:29:17.853Z,4.20
2017-11-11T03:31:44.268Z,4.30
2017-11-11T03:34:11.559Z,4.20
2017-11-11T03:36:37.968Z,4.20
2017-11-11T03:39:04.422Z,4.20
2017-11-11T03:41:30.849Z,4.20
2017-11-11T03:43:57.276Z,4.20
2017-11-11T03:46:23.688Z,4.00
2017-11-11T03:48:50.089Z,3.90
2017-11-11T03:51:16.529Z,3.80
2017-11-11T03:53:42.912Z,3.90
2017-11-11T03:56:09.345Z,4.00
2017-11-11T03:58:35.752Z,4.10
2017-11-11T04:01:02.190Z,4.10
2017-11-11T04:03:28.617Z,4.20
2017-11-11T04:05:55.023Z,4.20
2017-11-11T04:08:21.564Z,4.20
2017-11-11T04:10:48.708Z,4.20
2017-11-11T04:13:15.098Z,4.10
2017-11-11T04:15:41.535Z,4.10
2017-11-11T04:18:07.937Z,4.10
2017-11-11T04:20:34.340Z,4.10
2017-11-11T04:23:00.764Z,4.10
2017-11-11T04:25:27.180Z,4.10
2017-11-11T04:27:53.596Z,4.10
2017-11-11T04:30:20.008Z,4.10
2017-11-11T04:32:46.442Z,4.10
2017-11-11T04:35:12.835Z,4.20
2017-11-11T04:37:39.245Z,4.20
2017-11-11T04:40:05.655Z,4.20
2017-11-11T04:42:32.068Z,4.20
2017-11-11T04:44:58.461Z,4.20
2017-11-11T04:47:25.837Z,4.30
2017-11-11T04:49:53.033Z,4.40
2017-11-11T04:52:19.437Z,4.40
2017-11-11T04:54:45.852Z,4.40
2017-11-11T04:57:13.175Z,4.40
2017-11-11T04:59:39.620Z,4.30
2017-11-11T05:02:06.019Z,4.50
2017-11-11T05:04:32.474Z,4.60
2017-11-11T05:06:58.865Z,4.70
2017-11-11T05:09:25.304Z,4.70
2017-11-11T05:11:51.728Z,4.60
2017-11-11T05:14:18.212Z,4.60
2017-11-11T05:16:44.682Z,4.70
2017-11-11T05:19:11.893Z,4.40
2017-11-11T05:21:38.302Z,4.40
2017-11-11T05:24:04.768Z,4.30
2017-11-11T05:26:31.188Z,4.10
2017-11-11T05:28:57.585Z,4.10
2017-11-11T05:31:24.180Z,4.10
2017-11-11T05:33:51.316Z,4.10
2017-11-11T05:36:17.760Z,4.00
2017-11-11T05:38:44.924Z,4.00
2017-11-11T05:41:12.078Z,3.90
2017-11-11T05:43:39.226Z,3.90
2017-11-11T05:46:05.656Z,3.90
2017-11-11T05:48:32.842Z,4.00
2017-11-11T05:50:59.306Z,3.90
2017-11-11T05:53:25.702Z,4.00
2017-11-11T05:55:52.102Z,4.10
2017-11-11T05:58:19.296Z,4.20
2017-11-11T06:00:45.732Z,4.20
2017-11-11T06:03:12.203Z,4.30
2017-11-11T06:05:38.648Z,4.30
2017-11-11T06:08:05.822Z,4.60
2017-11-11T06:10:32.227Z,4.50
2017-11-11T06:12:58.611Z,4.70
2017-11-11T06:15:25.033Z,4.40
2017-11-11T06:17:51.449Z,4.40
2017-11-11T06:20:17.906Z,4.60
2017-11-11T06:22:44.306Z,4.70
2017-11-11T06:25:11.454Z,4.40
2017-11-11T06:27:38.604Z,4.40
2017-11-11T06:30:05.762Z,4.60
2017-11-11T06:32:32.186Z,4.60
2017-11-11T06:34:59.303Z,4.50
2017-11-11T06:37:25.766Z,4.50
2017-11-11T06:39:52.946Z,4.30
2017-11-11T06:42:19.324Z,4.30
2017-11-11T06:44:45.834Z,4.30
2017-11-11T06:47:12.324Z,4.60
2017-11-11T06:49:39.476Z,4.90
2017-11-11T06:52:06.677Z,4.90
2017-11-11T06:54:33.277Z,4.90
2017-11-11T06:56:59.754Z,4.80
2017-11-11T06:59:26.163Z,4.70
2017-11-11T07:01:52.853Z,4.70
2017-11-11T07:04:20.073Z,5.10
2017-11-11T07:06:46.571Z,5.10
2017-11-11T07:09:13.050Z,5.30
2017-11-11T07:11:40.079Z,5.40
2017-11-11T07:14:07.417Z,5.90
2017-11-11T07:16:33.836Z,5.90
2017-11-11T07:19:00.555Z,6.10
2017-11-11T07:21:27.279Z,6.30
2017-11-11T07:23:53.748Z,6.50
2017-11-11T07:26:20.369Z,6.50
2017-11-11T07:28:47.294Z,6.50
2017-11-11T07:31:13.946Z,6.60
2017-11-11T07:33:40.493Z,6.50
2017-11-11T07:36:06.978Z,6.50
2017-11-11T07:38:33.451Z,6.70
2017-11-11T07:40:59.885Z,6.80
2017-11-11T07:43:27.055Z,7.00
2017-11-11T07:45:53.542Z,7.00
2017-11-11T07:48:20.079Z,7.20
2017-11-11T07:50:47.353Z,7.50
2017-11-11T07:53:13.847Z,7.50
2017-11-11T07:55:40.273Z,7.50
2017-11-11T07:58:06.705Z,7.70
2017-11-11T08:00:33.460Z,7.70
2017-11-11T08:02:59.853Z,7.70
2017-11-11T08:05:26.337Z,7.80
2017-11-11T08:07:52.738Z,7.90
2017-11-11T08:10:19.214Z,8.00
2017-11-11T08:12:46.413Z,8.20
2017-11-11T08:15:12.854Z,8.20
2017-11-11T08:17:39.300Z,8.40
2017-11-11T08:20:05.732Z,8.60
2017-11-11T08:22:32.937Z,8.80
2017-11-11T08:24:59.422Z,8.80
2017-11-11T08:27:25.870Z,8.80
2017-11-11T08:29:52.344Z,8.80
2017-11-11T08:32:19.166Z,8.80
2017-11-11T08:34:46.376Z,8.50
2017-11-11T08:37:13.682Z,8.40
2017-11-11T08:39:40.125Z,8.10
2017-11-11T08:42:07.592Z,8.00
2017-11-11T08:44:37.012Z,8.10
2017-11-11T08:47:04.899Z,8.20
2017-11-11T08:49:32.384Z,8.60
2017-11-11T08:51:59.693Z,8.90
2017-11-11T08:54:26.169Z,8.90
2017-11-11T08:56:54.298Z,9.10
2017-11-11T08:59:22.045Z,9.10
2017-11-11T09:01:49.502Z,9.10
2017-11-11T09:04:17.742Z,8.90
2017-11-11T09:06:45.937Z,8.70
2017-11-11T09:09:13.609Z,8.70
2017-11-11T09:11:40.282Z,8.70
2017-11-11T09:14:06.871Z,8.80
2017-11-11T09:16:34.221Z,8.90
2017-11-11T09:19:02.419Z,8.90
2017-11-11T09:21:29.109Z,9.10
2017-11-11T09:23:57.206Z,9.20
2017-11-11T09:26:24.600Z,9.30
2017-11-11T09:28:52.202Z,9.30
2017-11-11T09:31:19.509Z,9.50
2017-11-11T09:33:47.073Z,9.70
2017-11-11T09:36:13.685Z,9.90
2017-11-11T09:38:40.312Z,10.20
2017-11-11T09:41:07.045Z,10.40
2017-11-11T09:43:34.909Z,10.70
2017-11-11T09:46:04.128Z,10.70
2017-11-11T09:48:31.874Z,10.70
2017-11-11T09:50:59.733Z,11.20
2017-11-11T09:53:27.218Z,11.20
2017-11-11T09:55:53.740Z,11.50
2017-11-11T09:58:20.934Z,11.90
2017-11-11T10:00:47.637Z,11.90
2017-11-11T10:03:15.033Z,12.50
2017-11-11T10:05:41.798Z,12.50
2017-11-11T10:08:08.369Z,12.60
2017-11-11T10:10:34.912Z,12.60
2017-11-11T10:13:01.429Z,12.80
2017-11-11T10:15:29.076Z,13.00
2017-11-11T10:17:55.611Z,13.00
2017-11-11T10:20:22.386Z,13.30
2017-11-11T10:22:49.814Z,13.10
2017-11-11T10:25:16.313Z,12.60
2017-11-11T10:27:43.131Z,12.50
2017-11-11T10:30:10.916Z,12.70
2017-11-11T10:32:37.340Z,12.90
2017-11-11T10:35:03.801Z,13.30
2017-11-11T10:37:30.244Z,13.10
2017-11-11T10:39:56.710Z,13.00
2017-11-11T10:42:23.868Z,13.50
2017-11-11T10:44:50.288Z,13.50
2017-11-11T10:47:17.454Z,13.60
2017-11-11T10:49:43.857Z,13.50
2017-11-11T10:52:10.396Z,14.10
2017-11-11T10:54:36.784Z,14.60
2017-11-11T10:57:03.191Z,14.80
2017-11-11T10:59:29.620Z,14.70
2017-11-11T11:01:56.038Z,14.90
2017-11-11T11:04:23.293Z,15.00
2017-11-11T11:06:50.461Z,14.90
2017-11-11T11:09:16.845Z,14.90
2017-11-11T11:11:43.263Z,14.70
2017-11-11T11:14:09.670Z,14.10
2017-11-11T11:16:36.846Z,13.40
2017-11-11T11:19:03.250Z,13.40
2017-11-11T11:21:29.668Z,13.00
2017-11-11T11:23:56.101Z,12.80
2017-11-11T11:26:22.552Z,12.70
2017-11-11T11:28:48.960Z,12.80
2017-11-11T11:31:15.394Z,12.90
2017-11-11T11:33:41.789Z,12.90
2017-11-11T11:36:08.230Z,12.90
2017-11-11T11:38:35.362Z,12.50
2017-11-11T11:41:01.801Z,12.50
2017-11-11T11:43:28.185Z,12.40
2017-11-11T11:45:54.606Z,12.20
2017-11-11T11:48:21.013Z,12.20
2017-11-11T11:50:47.460Z,12.30
2017-11-11T11:53:14.605Z,12.60
2017-11-11T11:55:41.759Z,12.70
2017-11-11T11:58:08.932Z,12.60
2017-11-11T12:00:35.448Z,12.60
2017-11-11T12:03:02.625Z,12.60
2017-11-11T12:05:29.023Z,12.60
2017-11-11T12:07:56.177Z,11.90
2017-11-11T12:10:23.325Z,11.80
2017-11-11T12:12:50.490Z,11.70
2017-11-11T12:15:16.888Z,11.70
2017-11-11T12:17:43.512Z,11.70
2017-11-11T12:20:10.117Z,11.70
2017-11-11T12:22:36.761Z,11.60
2017-11-11T12:25:03.310Z,11.50
2017-11-11T12:27:29.829Z,11.60
2017-11-11T12:29:56.356Z,11.70
2017-11-11T12:32:23.853Z,11.60
2017-11-11T12:34:50.272Z,11.50
2017-11-11T12:37:16.893Z,11.50
2017-11-11T12:39:43.385Z,11.50
2017-11-11T12:42:10.115Z,11.60
2017-11-11T12:44:36.548Z,11.60
2017-11-11T12:47:02.945Z,11.70
2017-11-11T12:49:30.609Z,11.30
2017-11-11T12:51:57.085Z,11.20
2017-11-11T12:54:24.565Z,11.10
2017-11-11T12:56:51.269Z,11.00
2017-11-11T12:59:17.721Z,11.10
2017-11-11T13:01:45.197Z,11.00
2017-11-11T13:04:11.759Z,11.00
2017-11-11T13:06:38.326Z,10.90
2017-11-11T13:09:05.045Z,10.80
2017-11-11T13:11:32.330Z,10.80
2017-11-11T13:13:59.485Z,10.70
2017-11-11T13:16:27.301Z,10.80
2017-11-11T13:18:53.932Z,10.80
2017-11-11T13:21:20.628Z,10.90
2017-11-11T13:23:47.828Z,10.70
2017-11-11T13:26:14.324Z,10.70
2017-11-11T13:28:41.516Z,10.80
2017-11-11T13:31:08.152Z,10.80
2017-11-11T13:33:34.549Z,10.70
2017-11-11T13:36:00.997Z,10.80
2017-11-11T13:38:27.497Z,10.80
2017-11-11T13:40:53.950Z,10.80
2017-11-11T13:43:21.690Z,10.90
2017-11-11T13:45:48.443Z,10.90
2017-11-11T13:48:15.182Z,11.00
2017-11-11T13:50:42.028Z,10.90
2017-11-11T13:53:08.440Z,10.90
2017-11-11T13:55:34.867Z,10.70
2017-11-11T13:58:01.276Z,10.70
2017-11-11T14:00:27.717Z,10.70
2017-11-11T14:02:54.632Z,10.60
2017-11-11T14:05:22.221Z,10.50
2017-11-11T14:07:49.665Z,10.50
2017-11-11T14:10:16.278Z,10.50
2017-11-11T14:12:42.954Z,10.60
2017-11-11T14:15:09.490Z,10.60
2017-11-11T14:17:36.685Z,10.60
2017-11-11T14:20:03.952Z,10.50
2017-11-11T14:22:30.657Z,10.50
2017-11-11T14:24:57.849Z,10.40
2017-11-11T14:27:24.365Z,10.40
2017-11-11T14:29:50.965Z,10.50
2017-11-11T14:32:17.452Z,10.50
2017-11-11T14:34:43.921Z,10.60
2017-11-11T14:37:11.096Z,10.60
2017-11-11T14:39:37.675Z,10.60
2017-11-11T14:42:04.213Z,10.60
2017-11-11T14:44:30.628Z,10.50
2017-11-11T14:46:58.065Z,10.50
2017-11-11T14:49:24.821Z,10.50
2017-11-11T14:51:51.416Z,10.50
2017-11-11T14:54:17.893Z,10.40
2017-11-11T14:56:45.010Z,10.40
2017-11-11T14:59:12.158Z,10.30
2017-11-11T15:01:38.605Z,10.40
2017-11-11T15:04:05.289Z,10.30
2017-11-11T15:06:31.996Z,10.20
2017-11-11T15:08:59.212Z,10.10
2017-11-11T15:11:25.776Z,10.10
2017-11-11T15:13:52.422Z,10.00
2017-11-11T15:16:18.901Z,9.90
2017-11-11T15:18:45.594Z,9.80
2017-11-11T15:21:12.094Z,9.80
2017-11-11T15:23:38.653Z,9.70
2017-11-11T15:26:05.610Z,9.60
2017-11-11T15:28:32.201Z,9.50
2017-11-11T15:30:58.836Z,9.30
2017-11-11T15:33:25.401Z,9.30
2017-11-11T15:35:52.597Z,9.10
2017-11-11T15:38:19.029Z,9.10
2017-11-11T15:40:45.534Z,9.00
2017-11-11T15:43:12.704Z,8.90
2017-11-11T15:45:39.157Z,8.90
2017-11-11T15:48:05.650Z,8.80
2017-11-11T15:50:32.364Z,8.80
2017-11-11T15:52:58.845Z,8.70
2017-11-11T15:55:26.209Z,8.50
2017-11-11T15:57:52.828Z,8.50
2017-11-11T16:00:19.305Z,8.50
2017-11-11T16:02:45.725Z,8.50
2017-11-11T16:05:12.206Z,8.40
2017-11-11T16:07:38.910Z,8.40
2017-11-11T16:10:06.330Z,8.40
2017-11-11T16:12:32.797Z,8.40
2017-11-11T16:14:59.226Z,8.30
2017-11-11T16:17:25.655Z,8.30
2017-11-11T16:19:52.076Z,8.20
2017-11-11T16:22:18.579Z,8.20
2017-11-11T16:24:45.097Z,8.20
2017-11-11T16:27:12.267Z,8.20
2017-11-11T16:29:39.464Z,8.20
2017-11-11T16:32:05.940Z,8.20
2017-11-11T16:34:32.377Z,8.10
2017-11-11T16:36:59.021Z,8.00
2017-11-11T16:39:25.488Z,8.00
2017-11-11T16:41:52.867Z,7.90
2017-11-11T16:44:21.620Z,7.90
2017-11-11T16:46:48.956Z,7.90
2017-11-11T16:49:15.380Z,7.80
2017-11-11T16:51:42.030Z,7.80
2017-11-11T16:54:08.677Z,7.80
2017-11-11T16:56:35.187Z,7.70
2017-11-11T16:59:02.501Z,7.70
2017-11-11T17:01:28.960Z,7.60
2017-11-11T17:03:55.376Z,7.70
2017-11-11T17:06:22.976Z,7.80
2017-11-11T17:08:49.601Z,7.70
2017-11-11T17:11:16.759Z,7.80
2017-11-11T17:13:43.925Z,7.70
2017-11-11T17:16:12.423Z,7.70
2017-11-11T17:18:39.094Z,7.70
2017-11-11T17:21:06.720Z,7.70
2017-11-11T17:23:35.250Z,7.70
2017-11-11T17:26:03.608Z,7.70
2017-11-11T17:28:30.297Z,7.70
2017-11-11T17:30:56.873Z,7.70
2017-11-11T17:33:23.406Z,7.70
2017-11-11T17:35:49.991Z,7.70
2017-11-11T17:38:16.465Z,7.80
2017-11-11T17:40:42.974Z,7.80
2017-11-11T17:43:10.138Z,7.90
2017-11-11T17:45:36.925Z,7.80
2017-11-11T17:48:03.573Z,7.80
2017-11-11T17:50:30.174Z,7.90
2017-11-11T17:52:56.792Z,8.00
2017-11-11T17:55:23.253Z,8.00
2017-11-11T17:57:49.870Z,8.10
2017-11-11T18:00:16.368Z,8.10
2017-11-11T18:02:43.008Z,8.10
2017-11-11T18:05:10.370Z,8.10
2017-11-11T18:07:37.536Z,8.20
2017-11-11T18:10:04.689Z,8.20
2017-11-11T18:12:32.882Z,8.20
2017-11-11T18:14:59.313Z,8.20
2017-11-11T18:17:28.069Z,8.10
2017-11-11T18:19:55.777Z,8.10
2017-11-11T18:22:22.324Z,8.10
2017-11-11T18:24:48.960Z,8.10
2017-11-11T18:27:17.535Z,8.10
2017-11-11T18:29:44.130Z,8.00
2017-11-11T18:32:10.821Z,8.10
2017-11-11T18:34:37.341Z,8.00
2017-11-11T18:37:03.777Z,8.10
2017-11-11T18:39:31.493Z,8.10
2017-11-11T18:41:57.926Z,8.10
2017-11-11T18:44:24.535Z,8.10
2017-11-11T18:46:50.996Z,8.10
2017-11-11T18:49:17.481Z,8.00
2017-11-11T18:51:43.900Z,8.00
2017-11-11T18:54:10.356Z,8.00
2017-11-11T18:56:37.043Z,8.00
2017-11-11T18:59:03.517Z,7.90
2017-11-11T19:01:29.920Z,7.90
2017-11-11T19:03:57.115Z,7.90
2017-11-11T19:06:23.677Z,7.90
2017-11-11T19:08:50.101Z,7.90
2017-11-11T19:11:16.549Z,8.00
2017-11-11T19:13:43.008Z,7.90
2017-11-11T19:16:09.473Z,7.90
2017-11-11T19:18:35.912Z,7.80
2017-11-11T19:21:02.345Z,7.80
2017-11-11T19:23:28.793Z,7.70
2017-11-11T19:25:55.188Z,7.70
2017-11-11T19:28:21.580Z,7.70
2017-11-11T19:30:48.037Z,7.70
2017-11-11T19:33:14.485Z,7.60
2017-11-11T19:35:40.913Z,7.40
2017-11-11T19:38:07.333Z,7.40
2017-11-11T19:40:34.512Z,7.40
2017-11-11T19:43:00.925Z,7.50
2017-11-11T19:45:28.116Z,7.40
2017-11-11T19:47:54.538Z,7.40
2017-11-11T19:50:20.995Z,7.40
2017-11-11T19:52:48.141Z,7.40
2017-11-11T19:55:14.548Z,7.40
2017-11-11T19:57:40.998Z,7.30
2017-11-11T20:00:07.441Z,7.30
2017-11-11T20:02:33.849Z,7.30
2017-11-11T20:05:00.285Z,7.30
2017-11-11T20:07:26.753Z,7.20
2017-11-11T20:09:53.209Z,7.10
2017-11-11T20:12:19.602Z,7.20
2017-11-11T20:14:46.743Z,7.00
2017-11-11T20:17:13.172Z,7.00
2017-11-11T20:19:39.612Z,6.90
2017-11-11T20:22:06.025Z,6.90
2017-11-11T20:24:32.468Z,6.90
2017-11-11T20:26:58.897Z,6.80
2017-11-11T20:29:25.337Z,6.70
2017-11-11T20:31:51.763Z,6.60
2017-11-11T20:34:18.196Z,6.50
2017-11-11T20:36:44.639Z,6.50
2017-11-11T20:39:11.030Z,6.40
2017-11-11T20:41:38.205Z,6.40
2017-11-11T20:44:04.641Z,6.40
2017-11-11T20:46:31.073Z,6.40
2017-11-11T20:48:57.513Z,6.40
2017-11-11T20:51:23.933Z,6.30
2017-11-11T20:53:50.374Z,6.30
2017-11-11T20:56:16.823Z,6.30
2017-11-11T20:58:43.253Z,6.30
2017-11-11T21:01:09.683Z,6.40
2017-11-11T21:03:36.111Z,6.30
2017-11-11T21:06:02.600Z,6.30
2017-11-11T21:08:28.999Z,6.40
2017-11-11T21:10:55.453Z,6.40
2017-11-11T21:13:21.905Z,6.40
2017-11-11T21:15:49.060Z,6.40
2017-11-11T21:18:16.260Z,6.20
2017-11-11T21:20:44.269Z,6.30
2017-11-11T21:23:11.032Z,6.30
2017-11-11T21:25:38.220Z,6.20
2017-11-11T21:28:04.933Z,6.20
2017-11-11T21:30:31.419Z,6.30
2017-11-11T21:32:57.812Z,6.40
2017-11-11T21:35:24.217Z,6.40
2017-11-11T21:37:50.641Z,6.50
2017-11-11T21:40:17.049Z,6.60
2017-11-11T21:42:43.500Z,6.60
2017-11-11T21:45:09.896Z,6.60
2017-11-11T21:47:36.302Z,6.50
2017-11-11T21:50:02.734Z,6.50
2017-11-11T21:52:29.134Z,6.50
2017-11-11T21:54:56.337Z,6.40
2017-11-11T21:57:22.770Z,6.40
2017-11-11T21:59:49.162Z,6.50
2017-11-11T22:02:15.616Z,6.40
2017-11-11T22:04:42.030Z,6.30
2017-11-11T22:07:09.192Z,6.20
2017-11-11T22:09:35.740Z,6.20
2017-11-11T22:12:02.157Z,6.10
2017-11-11T22:14:28.558Z,6.10
2017-11-11T22:16:55.761Z,6.00
2017-11-11T22:19:22.201Z,6.00
2017-11-11T22:21:48.634Z,6.00
2017-11-11T22:24:15.093Z,6.00
2017-11-11T22:26:41.525Z,6.10
2017-11-11T22:29:07.932Z,6.00
2017-11-11T22:31:34.376Z,6.00
2017-11-11T22:34:00.776Z,5.90
2017-11-11T22:36:27.345Z,5.80
2017-11-11T22:38:53.741Z,5.80
2017-11-11T22:41:20.141Z,5.90
2017-11-11T22:43:46.576Z,5.80
2017-11-11T22:46:13.016Z,5.80
2017-11-11T22:48:40.210Z,5.80
2017-11-11T22:51:06.637Z,5.70
2017-11-11T22:53:33.105Z,5.80
2017-11-11T22:55:59.604Z,5.70
2017-11-11T22:58:26.017Z,5.60
2017-11-11T23:00:53.203Z,5.60
2017-11-11T23:03:19.645Z,5.60
2017-11-11T23:05:46.051Z,5.60
2017-11-11T23:08:12.501Z,5.50
2017-11-11T23:10:38.952Z,5.50
2017-11-11T23:13:05.346Z,5.50
2017-11-11T23:15:31.773Z,5.50
2017-11-11T23:17:58.217Z,5.50
2017-11-11T23:20:24.633Z,5.40
2017-11-11T23:22:51.831Z,5.30
2017-11-11T23:25:18.274Z,5.30
2017-11-11T23:27:44.700Z,5.30
2017-11-11T23:30:11.165Z,5.30
2017-11-11T23:32:37.600Z,5.30
2017-11-11T23:35:03.977Z,5.30
2017-11-11T23:37:30.436Z,5.30
2017-11-11T23:39:56.837Z,5.20
2017-11-11T23:42:23.242Z,5.10
2017-11-11T23:44:50.406Z,5.20
2017-11-11T23:47:17.599Z,5.20
2017-11-11T23:49:43.987Z,5.20
2017-11-11T23:52:10.403Z,5.20
2017-11-11T23:54:37.565Z,5.30
2017-11-11T23:57:04.729Z,5.30
2017-11-11T23:59:31.137Z,5.30
